Time;durP1;ratioP1;P1;durP2;ratioP2;P2;SDS_P1;SDS_P2;PMS_P1;PMS_P2;Temp;Humidity;BMP_temperature;BMP_pressure;BME280_temperature;BME280_humidity;BME280_pressure;Samples;Min_cycle;Max_cycle;Signal;HPM_P1;HPM_P2
2020/12/14 00:02:17;;;;;;;5.30;4.80;;;;;;;3.76;90.36;96503.09;5012476;28;20201;-71
2020/12/14 00:04:43;;;;;;;5.80;5.03;;;;;;;3.79;89.80;96494.13;5007802;28;20198;-73
2020/12/14 00:07:08;;;;;;;6.13;4.60;;;;;;;3.84;90.13;96502.16;5002228;28;20237;-71
2020/12/14 00:09:34;;;;;;;7.40;5.43;;;;;;;3.82;89.40;96483.38;5011356;28;20582;-71
2020/12/14 00:12:00;;;;;;;6.20;5.00;;;;;;;3.78;90.18;96481.38;5011540;28;20246;-71
2020/12/14 00:14:25;;;;;;;5.90;5.20;;;;;;;3.84;89.76;96465.06;5005460;28;20183;-77
2020/12/14 00:16:51;;;;;;;6.30;5.40;;;;;;;3.75;89.43;96459.22;5011689;28;20658;-72
2020/12/14 00:19:16;;;;;;;6.97;5.87;;;;;;;3.82;89.62;96446.28;5011736;28;20679;-70
2020/12/14 00:21:42;;;;;;;6.60;5.23;;;;;;;3.67;90.08;96442.06;5010413;28;20707;-70
2020/12/14 00:24:07;;;;;;;6.87;5.57;;;;;;;3.65;90.16;96438.03;5011921;28;20179;-70
2020/12/14 00:26:33;;;;;;;6.30;4.43;;;;;;;3.60;90.60;96420.47;5010486;28;20668;-72
2020/12/14 00:28:58;;;;;;;5.47;4.87;;;;;;;3.72;90.23;96421.53;5001889;28;20538;-70
2020/12/14 00:31:24;;;;;;;7.13;4.93;;;;;;;3.55;91.21;96427.22;5011610;28;20663;-77
2020/12/14 00:33:49;;;;;;;6.40;4.80;;;;;;;3.43;91.00;96426.97;5010965;28;20644;-70
2020/12/14 00:36:15;;;;;;;5.87;4.70;;;;;;;3.29;91.92;96436.41;5011855;28;20199;-71
2020/12/14 00:38:40;;;;;;;5.77;5.17;;;;;;;3.47;91.62;96432.53;5010585;28;20184;-70
2020/12/14 00:41:09;;;;;;;6.30;5.40;;;;;;;3.37;92.21;96425.13;5011583;28;20270;-71
2020/12/14 00:43:34;;;;;;;6.23;5.43;;;;;;;3.39;92.09;96422.34;5010948;28;20179;-71
2020/12/14 00:46:00;;;;;;;7.77;5.90;;;;;;;3.38;92.58;96426.72;5011590;28;20252;-73
2020/12/14 00:48:25;;;;;;;7.10;5.67;;;;;;;3.31;92.09;96431.06;5011081;28;20191;-77
2020/12/14 00:50:50;;;;;;;6.50;5.20;;;;;;;3.23;92.93;96444.94;5010776;28;20206;-70
2020/12/14 00:53:16;;;;;;;5.77;5.20;;;;;;;3.18;92.83;96455.06;5011096;28;20600;-71
2020/12/14 00:55:42;;;;;;;6.23;5.07;;;;;;;3.13;93.52;96466.97;5010990;28;20179;-71
2020/12/14 00:58:07;;;;;;;6.00;4.70;;;;;;;3.03;93.34;96482.03;4996917;28;20194;-70
2020/12/14 01:00:33;;;;;;;5.80;5.20;;;;;;;3.04;93.91;96486.22;5010734;28;20215;-71
2020/12/14 01:02:58;;;;;;;7.87;5.47;;;;;;;2.99;93.93;96491.97;5011431;28;20663;-70
2020/12/14 01:05:24;;;;;;;5.70;4.77;;;;;;;2.99;93.64;96493.75;5001667;28;20199;-77
2020/12/14 01:07:49;;;;;;;5.73;5.13;;;;;;;3.06;93.56;96492.03;5010964;28;20538;-71
2020/12/14 01:10:15;;;;;;;8.70;5.07;;;;;;;3.06;92.98;96486.84;5011601;28;20210;-71
2020/12/14 01:12:40;;;;;;;5.97;4.87;;;;;;;3.01;93.12;96494.38;5010658;28;20226;-71
2020/12/14 01:15:06;;;;;;;5.90;5.23;;;;;;;3.00;93.82;96485.81;5011180;28;20184;-71
2020/12/14 01:17:32;;;;;;;5.53;4.90;;;;;;;2.98;92.98;96476.63;5010511;28;20270;-71
2020/12/14 01:19:58;;;;;;;6.03;5.43;;;;;;;3.12;92.39;96475.75;5010816;28;20195;-73
2020/12/14 01:22:23;;;;;;;6.47;4.90;;;;;;;3.08;92.41;96482.28;5010147;28;20220;-78
2020/12/14 01:24:49;;;;;;;5.30;4.80;;;;;;;3.06;92.11;96487.66;5009494;28;20290;-70
2020/12/14 01:27:14;;;;;;;6.17;5.00;;;;;;;2.85;93.23;96491.03;5009912;28;20179;-71
2020/12/14 01:29:40;;;;;;;7.57;4.83;;;;;;;2.81;94.00;96482.06;5012292;28;20206;-70
2020/12/14 01:32:05;;;;;;;4.90;4.30;;;;;;;2.97;93.62;96470.66;5013197;28;20206;-70
2020/12/14 01:34:30;;;;;;;5.10;4.60;;;;;;;3.13;91.46;96451.44;5013008;28;20179;-71
2020/12/14 01:36:56;;;;;;;5.47;4.80;;;;;;;3.12;92.38;96440.28;5013568;28;20317;-71
2020/12/14 01:39:21;;;;;;;6.43;5.07;;;;;;;3.01;92.01;96447.78;5014005;28;20518;-70
2020/12/14 01:41:47;;;;;;;5.33;4.53;;;;;;;2.92;93.14;96458.25;5014795;28;20194;-70
2020/12/14 01:44:12;;;;;;;6.47;4.93;;;;;;;2.73;93.29;96465.88;5013585;28;20179;-70
2020/12/14 01:46:42;;;;;;;5.50;4.83;;;;;;;2.90;93.79;96464.59;5012121;28;20209;-72
2020/12/14 01:49:08;;;;;;;6.83;5.33;;;;;;;3.04;92.39;96471.50;5013486;28;20187;-70
2020/12/14 01:51:34;;;;;;;5.80;4.77;;;;;;;2.94;92.89;96458.09;5012656;28;20694;-70
2020/12/14 01:54:16;;;;;;;6.33;5.30;;;;;;;3.06;92.27;96464.38;5013139;28;20274;-70
2020/12/14 01:56:42;;;;;;;6.33;5.10;;;;;;;3.10;91.51;96463.00;5012159;28;20211;-70
2020/12/14 01:59:08;;;;;;;5.50;4.80;;;;;;;2.85;92.76;96470.34;5013199;28;20261;-70
2020/12/14 02:01:33;;;;;;;5.20;4.67;;;;;;;2.74;94.04;96467.44;5012328;28;20649;-70
2020/12/14 02:03:58;;;;;;;4.97;4.47;;;;;;;2.88;93.11;96470.00;5013295;28;20274;-70
2020/12/14 02:06:24;;;;;;;4.90;4.40;;;;;;;2.74;93.66;96472.63;5012156;28;20213;-77
2020/12/14 02:08:49;;;;;;;6.23;4.90;;;;;;;2.85;93.88;96477.31;5012553;28;20269;-70
2020/12/14 02:11:15;;;;;;;5.00;4.50;;;;;;;2.75;93.50;96471.63;5013007;28;20225;-70
2020/12/14 02:13:41;;;;;;;5.33;4.50;;;;;;;2.89;94.02;96466.41;5022635;28;20176;-70
2020/12/14 02:16:06;;;;;;;5.17;4.53;;;;;;;2.94;92.83;96450.31;5013281;28;20662;-71
2020/12/14 02:18:31;;;;;;;6.13;4.87;;;;;;;2.98;92.18;96448.16;5012712;28;20179;-70
2020/12/14 02:20:57;;;;;;;5.43;4.93;;;;;;;2.93;92.07;96444.34;4990182;28;641979;-70
2020/12/14 02:23:22;;;;;;;5.53;4.40;;;;;;;2.99;92.45;96449.75;5012885;28;20261;-76
2020/12/14 02:25:47;;;;;;;5.30;4.80;;;;;;;2.83;92.88;96445.66;5013388;28;20252;-70
2020/12/14 02:28:13;;;;;;;4.93;4.43;;;;;;;2.90;92.53;96449.88;5013983;28;20633;-70
2020/12/14 02:30:38;;;;;;;5.50;4.60;;;;;;;2.74;93.27;96449.34;5012703;28;20183;-71
2020/12/14 02:33:04;;;;;;;5.13;4.63;;;;;;;2.81;93.40;96445.81;5014046;28;20194;-70
2020/12/14 02:35:29;;;;;;;5.43;4.80;;;;;;;2.80;93.16;96443.41;5013298;28;20624;-70
2020/12/14 02:37:54;;;;;;;7.23;5.10;;;;;;;2.69;93.13;96449.91;5013634;28;20187;-70
2020/12/14 02:40:20;;;;;;;5.17;4.00;;;;;;;2.72;93.19;96446.97;5014143;28;20645;-70
2020/12/14 02:42:45;;;;;;;4.80;4.30;;;;;;;2.89;92.24;96450.09;5012973;28;20274;-71
2020/12/14 02:45:10;;;;;;;4.80;4.30;;;;;;;2.75;92.89;96443.19;5013894;28;20682;-71
2020/12/14 02:47:36;;;;;;;4.70;4.23;;;;;;;2.68;93.17;96434.56;5012591;28;20183;-71
2020/12/14 02:50:01;;;;;;;5.30;4.20;;;;;;;2.68;93.10;96443.13;5013721;28;20184;-70
2020/12/14 02:52:27;;;;;;;6.07;4.63;;;;;;;2.59;93.48;96441.66;5011345;28;20195;-73
2020/12/14 02:54:52;;;;;;;5.10;4.60;;;;;;;2.55;94.20;96440.44;5013127;28;20278;-70
2020/12/14 02:57:18;;;;;;;4.80;4.40;;;;;;;2.51;94.16;96431.41;5011997;28;20191;-70
2020/12/14 02:59:43;;;;;;;5.83;4.80;;;;;;;2.56;93.31;96425.72;5012418;28;20179;-69
2020/12/14 03:02:08;;;;;;;4.97;4.57;;;;;;;2.69;92.89;96420.63;5013299;28;20628;-70
2020/12/14 03:04:34;;;;;;;5.20;4.70;;;;;;;2.55;92.90;96418.94;5011778;28;20183;-69
2020/12/14 03:07:00;;;;;;;4.47;4.07;;;;;;;2.59;93.44;96414.97;5006108;28;20183;-68
2020/12/14 03:09:25;;;;;;;5.43;4.67;;;;;;;2.72;92.79;96412.50;5012470;28;20183;-76
2020/12/14 03:11:51;;;;;;;5.23;4.70;;;;;;;2.71;91.79;96409.13;5012915;28;20238;-70
2020/12/14 03:14:17;;;;;;;5.10;4.60;;;;;;;2.73;92.23;96401.97;5012953;28;20201;-71
2020/12/14 03:16:47;;;;;;;4.97;4.50;;;;;;;2.77;92.44;96392.06;5011936;28;20191;-72
2020/12/14 03:19:12;;;;;;;5.33;4.83;;;;;;;2.71;92.41;96387.63;5013174;28;20258;-70
2020/12/14 03:21:38;;;;;;;5.53;4.87;;;;;;;2.64;92.49;96387.56;5012162;28;20222;-71
2020/12/14 03:24:04;;;;;;;5.63;4.83;;;;;;;2.66;92.94;96382.22;5004701;28;20215;-71
2020/12/14 03:26:29;;;;;;;5.57;4.97;;;;;;;2.57;92.83;96383.31;5024301;28;20290;-71
2020/12/14 03:28:55;;;;;;;5.83;5.03;;;;;;;2.54;93.17;96378.53;5013642;28;20195;-70
2020/12/14 03:31:21;;;;;;;5.50;5.00;;;;;;;2.44;93.75;96373.69;5006050;28;20691;-70
2020/12/14 03:33:49;;;;;;;4.73;4.23;;;;;;;2.36;94.35;96376.38;5011428;28;20541;-70
2020/12/14 03:36:15;;;;;;;5.80;4.90;;;;;;;2.50;93.86;96373.75;5011762;28;20666;-69
2020/12/14 03:38:40;;;;;;;5.77;5.20;;;;;;;2.40;93.59;96385.34;5026604;28;20183;-69
2020/12/14 03:41:06;;;;;;;5.90;5.07;;;;;;;2.37;94.10;96380.56;5012628;28;20257;-69
2020/12/14 03:43:32;;;;;;;5.57;4.93;;;;;;;2.38;94.41;96377.00;5011877;28;20202;-69
2020/12/14 03:45:58;;;;;;;5.40;4.83;;;;;;;2.43;93.24;96390.16;5012482;28;20559;-70
2020/12/14 03:48:24;;;;;;;5.77;5.17;;;;;;;2.27;94.21;96387.84;5012392;28;20594;-77
2020/12/14 03:50:50;;;;;;;5.60;5.00;;;;;;;2.20;94.37;96395.53;5011446;28;20261;-69
2020/12/14 03:53:15;;;;;;;6.73;5.53;;;;;;;2.24;94.80;96401.13;5012497;28;20640;-69
2020/12/14 03:55:41;;;;;;;6.47;4.87;;;;;;;2.19;94.97;96399.09;5011371;28;20659;-69
2020/12/14 03:58:07;;;;;;;7.07;5.00;;;;;;;2.28;94.90;96404.97;5012233;28;20194;-69
2020/12/14 04:00:33;;;;;;;7.03;5.20;;;;;;;2.30;94.90;96400.38;5011391;28;20266;-71
2020/12/14 04:03:01;;;;;;;6.37;5.30;;;;;;;2.28;94.24;96398.00;5012024;28;20274;-69
2020/12/14 04:05:26;;;;;;;5.40;4.90;;;;;;;2.24;94.49;96394.16;5011550;28;20257;-76
2020/12/14 04:07:51;;;;;;;4.60;4.20;;;;;;;2.24;94.98;96389.00;5011956;28;20191;-69
2020/12/14 04:10:17;;;;;;;5.70;4.93;;;;;;;2.28;94.16;96385.06;5012039;28;20183;-69
2020/12/14 04:12:42;;;;;;;5.30;4.57;;;;;;;2.45;93.21;96396.75;5001100;28;20191;-73
2020/12/14 04:15:07;;;;;;;4.90;4.40;;;;;;;2.57;92.05;96391.06;5012128;28;20187;-69
2020/12/14 04:17:33;;;;;;;5.17;4.63;;;;;;;2.21;93.39;96401.50;5011052;28;20194;-69
2020/12/14 04:19:58;;;;;;;4.60;4.20;;;;;;;2.34;93.12;96393.88;5012257;28;20704;-69
2020/12/14 04:22:24;;;;;;;5.73;4.80;;;;;;;2.33;93.51;96392.28;5010445;28;20617;-77
2020/12/14 04:24:49;;;;;;;5.50;4.43;;;;;;;2.33;92.79;96397.44;5010962;28;20196;-69
2020/12/14 04:27:14;;;;;;;4.93;4.47;;;;;;;2.46;92.95;96400.94;5010715;28;20191;-69
2020/12/14 04:29:40;;;;;;;4.30;3.77;;;;;;;2.23;93.50;96402.91;5010926;28;20179;-73
2020/12/14 04:32:05;;;;;;;4.70;3.87;;;;;;;2.22;93.16;96413.44;5011516;28;20209;-69
2020/12/14 04:34:31;;;;;;;4.87;4.37;;;;;;;2.32;93.59;96414.75;5010785;28;20674;-69
2020/12/14 04:36:56;;;;;;;4.10;3.53;;;;;;;2.17;94.20;96416.59;5011572;28;20270;-69
2020/12/14 04:39:22;;;;;;;4.03;3.67;;;;;;;2.20;93.85;96418.00;5011901;28;20238;-69
2020/12/14 04:41:47;;;;;;;4.17;3.77;;;;;;;2.25;93.95;96421.63;5010829;28;20215;-69
2020/12/14 04:44:13;;;;;;;3.77;3.43;;;;;;;2.20;94.17;96420.56;5011576;28;20179;-69
2020/12/14 04:46:38;;;;;;;4.20;3.80;;;;;;;2.20;93.88;96420.56;5006496;28;20198;-69
2020/12/14 04:49:06;;;;;;;3.70;3.40;;;;;;;2.20;93.60;96410.22;5001889;28;20244;-69
2020/12/14 04:51:41;;;;;;;3.87;3.57;;;;;;;2.18;92.91;96405.22;5010751;28;20183;-70
2020/12/14 04:54:07;;;;;;;3.80;3.50;;;;;;;2.04;93.81;96411.25;5012983;28;20252;-69
2020/12/14 04:56:42;;;;;;;4.27;3.87;;;;;;;2.09;94.25;96414.09;5010452;28;20179;-69
2020/12/14 04:59:08;;;;;;;4.17;3.70;;;;;;;2.24;93.28;96412.25;5011706;28;20171;-69
2020/12/14 05:01:34;;;;;;;4.07;3.67;;;;;;;2.19;93.35;96417.19;5010496;28;20750;-70
2020/12/14 05:04:00;;;;;;;4.23;3.83;;;;;;;2.21;92.97;96410.06;5014503;28;20274;-69
2020/12/14 05:06:26;;;;;;;7.57;4.00;;;;;;;2.02;93.67;96411.44;5014529;28;20199;-75
2020/12/14 05:08:51;;;;;;;3.67;3.37;;;;;;;2.11;93.27;96414.72;5014230;28;20195;-69
2020/12/14 05:11:34;;;;;;;4.67;4.17;;;;;;;2.11;93.88;96412.13;5023598;28;20838;-69
2020/12/14 05:14:15;;;;;;;3.80;3.50;;;;;;;2.13;93.44;96415.31;5015201;28;20593;-69
2020/12/14 05:16:41;;;;;;;4.17;3.73;;;;;;;2.02;93.50;96413.22;5014640;28;20258;-69
2020/12/14 05:19:23;;;;;;;5.30;3.53;;;;;;;2.09;93.95;96398.59;5015294;28;20279;-69
2020/12/14 05:21:51;;;;;;;4.90;3.90;;;;;;;2.28;92.58;96405.75;5014640;28;20227;-69
2020/12/14 05:24:21;;;;;;;4.47;4.07;;;;;;;2.19;92.55;96399.09;5005864;28;20179;-70
2020/12/14 05:26:48;;;;;;;4.80;4.10;;;;;;;2.01;92.72;96390.94;5014108;28;20209;-70
2020/12/14 05:29:18;;;;;;;4.57;3.90;;;;;;;2.00;93.55;96390.16;5014922;28;20183;-70
2020/12/14 05:32:12;;;;;;;4.87;4.37;;;;;;;1.90;93.52;96388.81;5014335;28;20183;-73
2020/12/14 05:34:42;;;;;;;5.83;4.03;;;;;;;2.07;92.62;96392.78;5009486;28;20659;-73
2020/12/14 05:37:09;;;;;;;4.60;4.20;;;;;;;1.98;93.08;96402.44;5015689;28;20191;-71
2020/12/14 05:39:39;;;;;;;5.17;4.17;;;;;;;1.93;94.07;96397.03;5012320;28;20270;-70
2020/12/14 05:42:08;;;;;;;4.33;3.93;;;;;;;1.91;94.18;96393.00;5014993;28;20192;-69
2020/12/14 05:44:34;;;;;;;4.73;4.30;;;;;;;2.02;93.81;96395.94;4998615;28;20176;-69
2020/12/14 05:47:00;;;;;;;5.50;4.43;;;;;;;1.93;94.53;96397.03;5014987;28;20608;-70
2020/12/14 05:49:26;;;;;;;4.53;4.07;;;;;;;2.02;94.83;96401.09;5013111;28;20207;-76
2020/12/14 05:51:59;;;;;;;5.30;4.50;;;;;;;2.22;94.02;96401.31;5014088;28;20191;-72
2020/12/14 05:54:35;;;;;;;5.53;4.47;;;;;;;2.23;93.72;96396.94;5013232;28;20202;-77
2020/12/14 05:57:04;;;;;;;4.40;4.00;;;;;;;2.17;93.53;96402.84;5014392;28;20534;-72
2020/12/14 05:59:34;;;;;;;5.53;4.47;;;;;;;2.20;93.57;96400.69;5013983;28;20241;-72
2020/12/14 06:02:06;;;;;;;6.30;4.90;;;;;;;2.21;93.75;96402.31;5011531;28;20179;-73
2020/12/14 06:04:35;;;;;;;5.67;4.97;;;;;;;2.27;93.25;96405.94;5004160;28;20214;-73
2020/12/14 06:07:05;;;;;;;5.53;4.60;;;;;;;2.19;93.82;96403.44;5008381;28;20181;-72
2020/12/14 06:09:36;;;;;;;5.00;4.50;;;;;;;2.29;96.68;96402.16;5004744;28;20227;-72
2020/12/14 06:12:04;;;;;;;4.87;4.03;;;;;;;2.40;95.45;96409.44;5005621;28;20250;-70
2020/12/14 06:14:38;;;;;;;5.93;4.87;;;;;;;2.58;92.74;96411.59;5004652;28;20280;-73
2020/12/14 06:17:09;;;;;;;5.17;4.67;;;;;;;2.61;91.87;96406.06;5014238;28;20621;-72
2020/12/14 06:19:35;;;;;;;5.00;4.50;;;;;;;2.44;91.51;96395.16;5013728;28;20175;-71
2020/12/14 06:22:02;;;;;;;5.67;5.00;;;;;;;2.46;92.45;96403.53;5013964;28;20249;-70
2020/12/14 06:24:30;;;;;;;6.53;4.83;;;;;;;2.56;91.43;96408.41;5013061;28;20266;-71
2020/12/14 06:26:56;;;;;;;6.83;4.87;;;;;;;2.40;91.67;96406.03;5013806;28;20215;-69
2020/12/14 06:29:48;;;;;;;5.60;5.10;;;;;;;2.22;92.43;96403.91;4999688;28;20187;-70
2020/12/14 06:32:34;;;;;;;5.40;4.83;;;;;;;2.19;93.06;96404.25;5009234;28;20601;-70
2020/12/14 06:34:59;;;;;;;4.67;4.20;;;;;;;2.14;92.77;96401.44;5000238;28;20184;-70
2020/12/14 06:37:48;;;;;;;5.80;5.10;;;;;;;2.17;93.56;96392.50;5013830;28;20262;-77
2020/12/14 06:40:14;;;;;;;5.97;4.90;;;;;;;2.12;93.52;96398.22;5013582;28;20547;-71
2020/12/14 06:42:41;;;;;;;6.67;5.27;;;;;;;2.09;92.89;96394.22;5012765;28;20219;-71
2020/12/14 06:45:11;;;;;;;6.43;5.47;;;;;;;2.10;92.97;96392.44;5013313;28;20206;-71
2020/12/14 06:47:41;;;;;;;7.07;5.60;;;;;;;2.11;93.14;96401.00;5013137;28;20183;-72
2020/12/14 06:50:29;;;;;;;7.77;6.10;;;;;;;2.14;92.52;96398.84;4999153;28;20191;-79
2020/12/14 06:52:56;;;;;;;7.43;6.17;;;;;;;2.16;93.49;96404.63;5011763;28;20179;-79
2020/12/14 06:55:56;;;;;;;9.37;6.80;;;;;;;2.33;94.22;96403.41;5013603;28;20270;-80
2020/12/14 06:58:29;;;;;;;7.50;5.60;;;;;;;2.30;92.70;96405.56;4913326;29;20231;-78
2020/12/14 07:00:55;;;;;;;10.43;6.37;;;;;;;2.31;92.36;96414.91;4999532;28;20206;-84
2020/12/14 07:03:37;;;;;;;7.97;6.57;;;;;;;2.32;92.43;96412.16;5015194;28;20179;-85
2020/12/14 07:06:06;;;;;;;7.87;6.50;;;;;;;2.16;93.04;96416.75;5015226;28;20539;-84
2020/12/14 07:08:38;;;;;;;7.20;5.77;;;;;;;2.13;93.38;96422.28;5005085;28;20171;-85
2020/12/14 07:11:17;;;;;;;7.27;5.93;;;;;;;2.15;92.62;96415.94;5015820;28;20551;-85
2020/12/14 07:13:45;;;;;;;7.27;5.83;;;;;;;2.14;93.18;96419.53;5013818;28;20774;-80
2020/12/14 07:16:12;;;;;;;6.57;5.60;;;;;;;2.27;92.55;96419.66;5013160;28;20187;-81
2020/12/14 07:18:39;;;;;;;8.03;6.30;;;;;;;2.20;92.98;96413.63;5012622;28;20277;-78
2020/12/14 07:21:15;;;;;;;8.27;5.93;;;;;;;2.28;93.11;96415.28;5011334;28;20728;-81
2020/12/14 07:23:43;;;;;;;9.00;7.20;;;;;;;2.26;92.45;96428.41;5011372;28;20187;-78
2020/12/14 07:26:11;;;;;;;10.33;6.27;;;;;;;2.33;92.98;96416.34;5011625;28;20207;-78
2020/12/14 07:28:51;;;;;;;7.90;6.77;;;;;;;2.48;91.52;96424.84;4994043;28;20215;-78
2020/12/14 07:31:19;;;;;;;7.70;6.30;;;;;;;2.55;90.76;96424.09;5012700;28;20182;-80
2020/12/14 07:33:55;;;;;;;9.57;6.53;;;;;;;2.59;90.96;96423.53;5011545;28;20648;-79
2020/12/14 07:36:22;;;;;;;7.93;6.50;;;;;;;2.61;91.09;96418.19;5008997;28;20651;-79
2020/12/14 07:38:51;;;;;;;11.20;7.67;;;;;;;2.61;90.55;96425.94;5011984;28;20187;-79
2020/12/14 07:41:17;;;;;;;9.93;7.00;;;;;;;2.77;89.81;96429.09;5013005;28;20192;-79
2020/12/14 07:43:45;;;;;;;8.50;6.43;;;;;;;2.87;89.82;96437.31;5012646;28;20193;-79
2020/12/14 07:46:24;;;;;;;9.07;6.57;;;;;;;2.81;90.40;96437.25;5013174;28;20253;-78
2020/12/14 07:49:01;;;;;;;8.83;6.90;;;;;;;3.04;88.42;96437.03;5010875;28;20191;-76
2020/12/14 07:51:28;;;;;;;9.53;7.00;;;;;;;2.86;88.93;96440.91;5005788;28;20179;-77
2020/12/14 07:54:06;;;;;;;7.73;6.13;;;;;;;2.92;88.79;96444.53;5006647;28;20202;-79
2020/12/14 07:56:38;;;;;;;7.93;6.27;;;;;;;3.04;89.39;96448.22;5009450;28;20718;-76
2020/12/14 07:59:03;;;;;;;8.17;6.33;;;;;;;3.05;88.61;96438.66;4985044;28;20179;-78
2020/12/14 08:01:28;;;;;;;7.83;6.67;;;;;;;3.18;88.07;96449.91;5011358;28;20251;-79
2020/12/14 08:04:00;;;;;;;8.07;6.03;;;;;;;3.26;87.40;96443.78;5005672;28;20191;-80
2020/12/14 08:06:26;;;;;;;8.47;6.83;;;;;;;3.37;86.85;96443.25;5011029;28;20192;-75
2020/12/14 08:08:52;;;;;;;8.33;6.70;;;;;;;3.46;87.10;96443.91;5010718;28;20660;-74
2020/12/14 08:11:20;;;;;;;10.13;6.77;;;;;;;3.64;85.59;96444.19;5009967;28;20210;-73
2020/12/14 08:13:51;;;;;;;8.93;6.57;;;;;;;3.60;85.59;96443.78;5011678;28;20245;-75
2020/12/14 08:16:19;;;;;;;8.03;6.03;;;;;;;3.66;85.75;96444.81;5008276;28;20184;-73
2020/12/14 08:18:47;;;;;;;8.30;6.37;;;;;;;3.73;85.80;96443.84;5001073;28;20844;-73
2020/12/14 08:21:23;;;;;;;8.73;6.70;;;;;;;3.69;85.68;96439.25;4985685;28;20231;-78
2020/12/14 08:23:50;;;;;;;9.97;6.60;;;;;;;3.79;85.60;96439.69;5011648;28;20241;-74
2020/12/14 08:26:22;;;;;;;8.43;6.53;;;;;;;3.79;85.45;96444.09;5011723;28;20211;-76
2020/12/14 08:28:49;;;;;;;8.90;6.60;;;;;;;3.81;85.50;96439.50;5017173;28;20219;-78
2020/12/14 08:31:14;;;;;;;10.00;7.33;;;;;;;3.93;84.83;96441.38;5011918;28;20198;-75
2020/12/14 08:33:54;;;;;;;8.67;7.00;;;;;;;4.06;85.61;96448.41;5011129;28;20183;-76
2020/12/14 08:36:20;;;;;;;8.23;6.63;;;;;;;3.96;85.91;96437.56;5010241;28;20210;-72
2020/12/14 08:38:46;;;;;;;9.00;6.97;;;;;;;4.18;85.44;96446.81;5010949;28;20750;-71
2020/12/14 08:41:12;;;;;;;8.17;6.80;;;;;;;4.30;84.15;96444.47;5011817;28;20274;-75
2020/12/14 08:43:39;;;;;;;9.53;7.13;;;;;;;4.29;84.13;96441.06;5011058;28;20199;-73
2020/12/14 08:46:09;;;;;;;10.83;7.33;;;;;;;4.25;84.36;96447.66;4997704;28;20205;-69
2020/12/14 08:48:42;;;;;;;9.47;7.30;;;;;;;4.32;84.88;96448.47;5010569;28;20629;-76
2020/12/14 08:51:18;;;;;;;9.03;7.43;;;;;;;4.32;83.65;96445.88;4996362;28;20179;-73
2020/12/14 08:53:45;;;;;;;9.10;6.60;;;;;;;4.47;83.62;96446.50;5009492;28;20175;-73
2020/12/14 08:56:16;;;;;;;9.17;7.10;;;;;;;4.53;83.15;96458.69;5011242;28;20175;-74
2020/12/14 08:58:45;;;;;;;8.27;6.60;;;;;;;4.55;82.21;96461.09;5010407;28;20183;-73
2020/12/14 09:01:11;;;;;;;9.23;6.77;;;;;;;4.52;82.14;96457.09;5004223;28;20653;-73
2020/12/14 09:03:52;;;;;;;9.00;6.60;;;;;;;4.57;82.49;96462.50;5010388;28;20215;-74
2020/12/14 09:06:39;;;;;;;10.50;6.47;;;;;;;4.70;80.96;96468.72;5003349;28;20656;-74
2020/12/14 09:09:14;;;;;;;8.53;6.70;;;;;;;4.61;82.04;96468.13;5011082;28;20187;-75
2020/12/14 09:11:46;;;;;;;7.93;6.70;;;;;;;4.55;82.86;96472.28;5010231;28;20191;-73
2020/12/14 09:14:21;;;;;;;8.00;6.33;;;;;;;4.58;82.06;96471.88;5011219;28;20187;-73
2020/12/14 09:16:49;;;;;;;7.97;6.17;;;;;;;4.68;81.32;96479.28;5004483;28;20171;-73
2020/12/14 09:19:34;;;;;;;7.30;6.13;;;;;;;4.90;80.54;96478.13;5011212;28;20586;-75
2020/12/14 09:22:01;;;;;;;7.83;6.53;;;;;;;4.83;80.93;96484.31;5010934;28;20227;-74
2020/12/14 09:24:35;;;;;;;7.50;6.20;;;;;;;4.90;80.53;96487.72;5010741;28;20187;-72
2020/12/14 09:27:09;;;;;;;11.57;5.87;;;;;;;4.85;80.29;96483.09;5010810;28;20278;-76
2020/12/14 09:29:40;;;;;;;6.53;5.70;;;;;;;4.97;80.00;96491.91;5010372;28;20208;-76
2020/12/14 09:32:07;;;;;;;6.93;5.70;;;;;;;5.08;79.34;96485.34;5010899;28;20199;-76
2020/12/14 09:34:33;;;;;;;10.40;6.23;;;;;;;5.13;79.96;96500.31;5010271;28;20188;-76
2020/12/14 09:37:00;;;;;;;6.13;5.50;;;;;;;5.16;79.81;96492.13;5011073;28;20202;-75
2020/12/14 09:39:27;;;;;;;9.60;5.87;;;;;;;5.29;79.14;96492.94;5009365;28;20186;-72
2020/12/14 09:41:56;;;;;;;6.40;5.70;;;;;;;5.44;78.59;96485.75;5010637;28;20187;-75
2020/12/14 09:44:24;;;;;;;7.57;5.83;;;;;;;5.43;79.13;96486.72;5002866;28;20191;-75
2020/12/14 09:46:49;;;;;;;7.03;5.77;;;;;;;5.54;78.85;96481.91;4998187;28;20209;-76
2020/12/14 09:49:15;;;;;;;9.27;6.40;;;;;;;5.53;78.83;96482.91;5012813;28;20285;-75
2020/12/14 09:51:41;;;;;;;7.07;6.10;;;;;;;5.37;79.35;96484.13;5013543;28;20199;-75
2020/12/14 09:54:06;;;;;;;8.10;6.63;;;;;;;5.52;78.59;96489.91;5014489;28;20188;-76
2020/12/14 09:56:33;;;;;;;7.93;6.37;;;;;;;5.55;79.30;96489.53;5013732;28;20198;-75
2020/12/14 09:58:59;;;;;;;7.87;6.07;;;;;;;5.81;77.26;96484.25;5014221;28;20183;-75
2020/12/14 10:01:25;;;;;;;8.07;6.27;;;;;;;5.79;77.85;96478.50;5012522;28;20219;-74
2020/12/14 10:03:51;;;;;;;8.10;5.90;;;;;;;5.76;77.65;96481.47;5013858;28;20211;-75
2020/12/14 10:06:16;;;;;;;6.40;5.57;;;;;;;5.66;78.21;96473.31;5014706;28;20199;-75
2020/12/14 10:08:42;;;;;;;6.93;5.67;;;;;;;5.75;77.52;96473.88;5013461;28;20195;-75
2020/12/14 10:11:08;;;;;;;7.10;6.07;;;;;;;5.82;77.78;96474.66;5014659;28;20198;-75
2020/12/14 10:13:35;;;;;;;7.13;6.43;;;;;;;6.10;76.40;96469.19;5010296;28;20277;-75
2020/12/14 10:16:01;;;;;;;6.40;5.47;;;;;;;6.19;76.42;96467.97;4997988;28;20203;-75
2020/12/14 10:18:27;;;;;;;6.67;5.77;;;;;;;6.27;75.46;96465.13;5014179;28;20187;-72
2020/12/14 10:20:52;;;;;;;8.63;5.80;;;;;;;6.27;75.62;96467.75;5013275;28;20184;-75
2020/12/14 10:23:18;;;;;;;8.57;5.93;;;;;;;6.28;75.63;96471.13;5013366;28;20230;-75
2020/12/14 10:25:43;;;;;;;7.70;5.73;;;;;;;6.38;76.14;96466.28;5012212;28;20564;-77
2020/12/14 10:28:09;;;;;;;6.33;5.57;;;;;;;6.55;75.24;96467.41;5013667;28;20183;-75
2020/12/14 10:30:35;;;;;;;7.77;5.87;;;;;;;6.61;74.91;96463.97;5003598;28;20663;-74
2020/12/14 10:33:01;;;;;;;7.70;5.83;;;;;;;6.65;74.76;96465.94;5007072;28;20195;-74
2020/12/14 10:35:27;;;;;;;7.13;5.30;;;;;;;6.65;74.47;96465.94;5009792;28;20544;-72
2020/12/14 10:37:54;;;;;;;6.67;5.40;;;;;;;6.67;74.21;96463.94;5013589;28;20191;-77
2020/12/14 10:40:20;;;;;;;6.83;5.80;;;;;;;6.82;73.88;96463.63;5009246;28;20230;-76
2020/12/14 10:42:45;;;;;;;8.20;5.80;;;;;;;6.77;74.99;96457.44;5013608;28;20601;-79
2020/12/14 10:45:10;;;;;;;6.20;5.40;;;;;;;6.87;73.84;96460.38;5013677;28;20294;-76
2020/12/14 10:47:39;;;;;;;6.10;5.50;;;;;;;6.83;73.67;96457.41;5013309;28;20191;-76
2020/12/14 10:50:05;;;;;;;6.00;5.40;;;;;;;6.87;74.24;96449.97;5013366;28;20188;-76
2020/12/14 10:52:30;;;;;;;8.63;5.83;;;;;;;7.01;73.54;96460.09;5012496;28;20183;-76
2020/12/14 10:54:56;;;;;;;7.37;5.57;;;;;;;7.09;73.95;96441.56;5017890;28;20552;-78
2020/12/14 10:57:21;;;;;;;5.60;4.97;;;;;;;7.25;72.33;96440.25;4998139;28;20187;-78
2020/12/14 10:59:47;;;;;;;6.03;4.57;;;;;;;7.37;72.17;96448.97;5012120;28;20180;-78
2020/12/14 11:02:12;;;;;;;5.90;4.97;;;;;;;7.39;72.35;96453.97;5009337;28;20183;-78
2020/12/14 11:04:38;;;;;;;4.90;4.20;;;;;;;7.47;71.88;96444.03;5006902;28;20191;-78
2020/12/14 11:07:07;;;;;;;5.23;4.30;;;;;;;7.55;72.29;96439.56;5012893;28;20285;-78
2020/12/14 11:09:33;;;;;;;5.10;4.60;;;;;;;7.77;71.21;96440.75;5012161;28;20271;-77
2020/12/14 11:11:58;;;;;;;5.67;4.40;;;;;;;7.93;71.15;96427.13;5013240;28;20245;-78
2020/12/14 11:14:24;;;;;;;5.60;4.20;;;;;;;7.94;70.97;96434.75;5013153;28;20188;-78
2020/12/14 11:16:49;;;;;;;4.67;4.17;;;;;;;8.10;69.54;96441.16;5011693;28;20183;-79
2020/12/14 11:19:14;;;;;;;5.60;4.10;;;;;;;8.01;70.55;96434.66;5013099;28;20272;-79
2020/12/14 11:21:40;;;;;;;4.87;4.37;;;;;;;7.82;71.38;96431.25;5011432;28;20223;-79
2020/12/14 11:24:07;;;;;;;5.10;4.47;;;;;;;7.91;70.50;96431.78;5012873;28;20176;-79
2020/12/14 11:26:33;;;;;;;5.73;4.83;;;;;;;7.85;71.22;96436.06;5015863;28;20280;-73
2020/12/14 11:28:58;;;;;;;6.47;4.80;;;;;;;7.89;70.57;96437.22;5012550;28;20207;-79
2020/12/14 11:31:23;;;;;;;5.90;4.27;;;;;;;7.89;71.35;96426.78;5013102;28;20179;-79
2020/12/14 11:33:49;;;;;;;5.13;4.63;;;;;;;7.91;71.75;96429.94;5011305;28;20206;-79
2020/12/14 11:36:14;;;;;;;7.10;4.77;;;;;;;8.18;70.76;96424.44;5012114;28;20179;-79
2020/12/14 11:38:40;;;;;;;5.03;4.30;;;;;;;8.17;71.42;96420.22;5011646;28;20179;-78
2020/12/14 11:41:05;;;;;;;4.67;4.27;;;;;;;8.25;71.33;96419.91;5012502;28;20191;-79
2020/12/14 11:43:31;;;;;;;5.53;4.33;;;;;;;8.17;70.77;96415.00;5011444;28;20668;-74
2020/12/14 11:45:56;;;;;;;4.87;4.47;;;;;;;8.17;70.12;96401.94;5011856;28;20203;-79